createdAt,value
2023-03-04T00:01:18.508Z,61.10
2023-03-04T00:03:48.868Z,61.00
2023-03-04T00:06:20.012Z,61.20
2023-03-04T00:08:50.280Z,61.10
2023-03-04T00:11:20.620Z,61.10
2023-03-04T00:13:50.879Z,61.10
2023-03-04T00:16:21.735Z,61.10
2023-03-04T00:18:51.937Z,61.10
2023-03-04T00:21:22.454Z,61.10
2023-03-04T00:23:52.855Z,61.10
2023-03-04T00:26:23.430Z,61.10
2023-03-04T00:28:53.663Z,61.10
2023-03-04T00:31:24.085Z,61.10
2023-03-04T00:33:54.304Z,61.10
2023-03-04T00:36:24.572Z,61.10
2023-03-04T00:38:54.880Z,61.10
2023-03-04T00:41:25.105Z,61.10
2023-03-04T00:43:55.420Z,61.10
2023-03-04T00:46:25.661Z,61.10
2023-03-04T00:48:55.851Z,61.10
2023-03-04T00:51:26.142Z,61.10
2023-03-04T00:53:57.095Z,61.10
2023-03-04T00:56:28.767Z,61.10
2023-03-04T00:58:58.952Z,61.10
2023-03-04T01:01:29.306Z,61.10
2023-03-04T01:03:59.555Z,61.10
2023-03-04T01:06:29.930Z,61.10
2023-03-04T01:09:00.440Z,61.10
2023-03-04T01:11:30.647Z,61.10
2023-03-04T01:14:00.993Z,61.10
2023-03-04T01:16:31.220Z,61.10
2023-03-04T01:19:01.513Z,61.10
2023-03-04T01:21:31.716Z,61.10
2023-03-04T01:24:02.018Z,61.10
2023-03-04T01:26:32.271Z,61.00
2023-03-04T01:29:02.775Z,61.00
2023-03-04T01:31:33.085Z,61.00
2023-03-04T01:34:03.346Z,61.00
2023-03-04T01:36:33.661Z,61.00
2023-03-04T01:39:03.909Z,61.00
2023-03-04T01:41:34.885Z,61.00
2023-03-04T01:44:05.758Z,61.00
2023-03-04T01:46:36.189Z,61.90
2023-03-04T01:49:06.634Z,61.00
2023-03-04T01:51:37.018Z,61.00
2023-03-04T01:54:07.240Z,61.00
2023-03-04T01:56:42.380Z,61.00
2023-03-04T01:59:17.504Z,60.90
2023-03-04T02:01:54.387Z,60.90
2023-03-04T02:04:28.698Z,60.90
2023-03-04T02:07:00.227Z,60.90
2023-03-04T02:09:32.491Z,60.90
2023-03-04T02:12:03.070Z,60.90
2023-03-04T02:14:33.955Z,60.90
2023-03-04T02:17:04.131Z,60.90
2023-03-04T02:20:01.460Z,60.90
2023-03-04T02:22:31.766Z,60.80
2023-03-04T02:25:10.800Z,61.00
2023-03-04T02:27:41.098Z,60.90
2023-03-04T02:30:13.330Z,61.00
2023-03-04T02:32:43.608Z,60.90
2023-03-04T02:35:19.778Z,60.90
2023-03-04T02:37:50.244Z,60.90
2023-03-04T02:40:35.587Z,60.90
2023-03-04T02:43:06.366Z,60.90
2023-03-04T02:45:45.070Z,61.00
2023-03-04T02:48:16.227Z,61.00
2023-03-04T02:50:55.832Z,61.00
2023-03-04T02:53:27.300Z,61.00
2023-03-04T02:55:57.568Z,61.00
2023-03-04T02:58:28.115Z,61.00
2023-03-04T03:00:58.836Z,61.00
2023-03-04T03:03:29.046Z,61.00
2023-03-04T03:06:00.795Z,60.90
2023-03-04T03:08:31.056Z,61.00
2023-03-04T03:11:01.266Z,61.00
2023-03-04T03:13:31.681Z,60.90
2023-03-04T03:16:01.958Z,60.90
2023-03-04T03:18:32.235Z,61.00
2023-03-04T03:21:02.689Z,61.00
2023-03-04T03:23:32.969Z,61.00
2023-03-04T03:26:03.659Z,60.90
2023-03-04T03:28:34.002Z,60.90
2023-03-04T03:31:04.278Z,60.90
2023-03-04T03:33:34.791Z,60.90
2023-03-04T03:36:05.674Z,60.90
2023-03-04T03:38:36.285Z,60.90
2023-03-04T03:41:06.506Z,60.90
2023-03-04T03:43:36.792Z,60.90
2023-03-04T03:46:07.237Z,60.90
2023-03-04T03:48:37.492Z,60.90
2023-03-04T03:51:07.937Z,60.90
2023-03-04T03:53:38.141Z,60.90
2023-03-04T03:56:08.842Z,60.80
2023-03-04T03:58:39.060Z,60.80
2023-03-04T04:01:10.913Z,60.90
2023-03-04T04:03:41.209Z,60.80
2023-03-04T04:06:11.434Z,60.80
2023-03-04T04:08:44.295Z,60.80
2023-03-04T04:11:15.379Z,60.80
2023-03-04T04:13:45.661Z,60.80
2023-03-04T04:16:15.894Z,60.80
2023-03-04T04:18:46.109Z,60.70
2023-03-04T04:21:16.884Z,60.90
2023-03-04T04:23:47.167Z,60.80
2023-03-04T04:26:17.509Z,60.80
2023-03-04T04:28:47.764Z,60.80
2023-03-04T04:31:18.168Z,60.80
2023-03-04T04:33:48.350Z,60.80
2023-03-04T04:36:19.452Z,60.80
2023-03-04T04:38:51.034Z,60.80
2023-03-04T04:41:40.229Z,60.80
2023-03-04T04:44:11.913Z,60.70
2023-03-04T04:46:43.208Z,60.80
2023-03-04T04:49:13.444Z,60.80
2023-03-04T04:51:43.710Z,60.80
2023-03-04T04:54:15.810Z,60.80
2023-03-04T04:56:46.122Z,60.80
2023-03-04T04:59:16.313Z,60.80
2023-03-04T05:01:46.601Z,60.80
2023-03-04T05:04:16.986Z,60.80
2023-03-04T05:06:47.251Z,60.80
2023-03-04T05:09:18.024Z,60.80
2023-03-04T05:11:48.272Z,60.80
2023-03-04T05:14:18.542Z,60.80
2023-03-04T05:16:48.797Z,60.80
2023-03-04T05:19:19.029Z,60.80
2023-03-04T05:21:49.344Z,60.80
2023-03-04T05:24:19.672Z,60.80
2023-03-04T05:26:50.167Z,60.80
2023-03-04T05:29:20.460Z,60.80
2023-03-04T05:31:50.909Z,60.80
2023-03-04T05:34:21.240Z,60.80
2023-03-04T05:36:51.510Z,60.70
2023-03-04T05:39:21.883Z,60.70
2023-03-04T05:41:52.054Z,60.80
2023-03-04T05:44:22.368Z,60.70
2023-03-04T05:46:52.634Z,60.70
2023-03-04T05:49:23.039Z,60.70
2023-03-04T05:51:53.222Z,60.70
2023-03-04T05:54:23.541Z,60.80
2023-03-04T05:56:53.793Z,60.70
2023-03-04T05:59:25.193Z,61.50
2023-03-04T06:01:55.445Z,60.80
2023-03-04T06:04:25.741Z,60.70
2023-03-04T06:06:55.958Z,60.70
2023-03-04T06:09:26.139Z,60.70
2023-03-04T06:11:56.341Z,60.70
2023-03-04T06:14:26.659Z,60.70
2023-03-04T06:16:56.905Z,60.70
2023-03-04T06:19:27.209Z,60.70
2023-03-04T06:21:57.459Z,60.70
2023-03-04T06:24:29.964Z,60.70
2023-03-04T06:27:00.126Z,60.70
2023-03-04T06:29:30.926Z,60.60
2023-03-04T06:32:01.354Z,60.60
2023-03-04T06:34:31.640Z,60.60
2023-03-04T06:37:02.384Z,60.60
2023-03-04T06:39:32.632Z,60.60
2023-03-04T06:42:02.875Z,60.60
2023-03-04T06:44:33.318Z,60.60
2023-03-04T06:47:03.518Z,60.60
2023-03-04T06:49:33.775Z,60.70
2023-03-04T06:52:04.048Z,60.60
2023-03-04T06:54:34.501Z,60.60
2023-03-04T06:57:04.662Z,60.60
2023-03-04T06:59:35.314Z,60.60
2023-03-04T07:02:05.598Z,60.60
2023-03-04T07:04:36.093Z,60.60
2023-03-04T07:07:06.509Z,60.60
2023-03-04T07:09:36.764Z,60.60
2023-03-04T07:12:07.196Z,60.60
2023-03-04T07:14:37.490Z,60.50
2023-03-04T07:17:07.816Z,60.50
2023-03-04T07:19:38.580Z,60.50
2023-03-04T07:22:08.934Z,60.50
2023-03-04T07:24:39.357Z,60.50
2023-03-04T07:27:09.663Z,60.50
2023-03-04T07:29:39.943Z,60.50
2023-03-04T07:32:13.679Z,60.50
2023-03-04T07:34:44.301Z,60.50
2023-03-04T07:37:14.876Z,60.50
2023-03-04T07:39:45.611Z,60.50
2023-03-04T07:42:16.480Z,60.50
2023-03-04T07:44:46.914Z,60.40
2023-03-04T07:47:17.187Z,60.50
2023-03-04T07:49:47.552Z,60.40
2023-03-04T07:52:18.302Z,60.50
2023-03-04T07:54:49.624Z,60.50
2023-03-04T07:57:19.845Z,60.40
2023-03-04T07:59:50.312Z,60.50
2023-03-04T08:02:20.616Z,60.50
2023-03-04T08:04:51.205Z,60.40
2023-03-04T08:07:21.530Z,60.40
2023-03-04T08:09:52.763Z,60.40
2023-03-04T08:12:23.067Z,60.40
2023-03-04T08:14:54.087Z,60.50
2023-03-04T08:17:24.432Z,60.40
2023-03-04T08:19:54.706Z,60.40
2023-03-04T08:22:25.136Z,60.50
2023-03-04T08:24:56.595Z,60.40
2023-03-04T08:27:26.844Z,60.40
2023-03-04T08:29:57.058Z,60.40
2023-03-04T08:32:27.452Z,60.30
2023-03-04T08:34:58.660Z,60.40
2023-03-04T08:37:28.843Z,60.40
2023-03-04T08:39:59.427Z,60.40
2023-03-04T08:42:29.750Z,60.30
2023-03-04T08:45:00.123Z,60.40
2023-03-04T08:47:30.392Z,60.40
2023-03-04T08:50:01.535Z,60.40
2023-03-04T08:52:32.749Z,60.30
2023-03-04T08:55:03.457Z,60.30
2023-03-04T08:57:33.792Z,60.40
2023-03-04T09:00:04.079Z,60.30
2023-03-04T09:02:34.437Z,60.40
2023-03-04T09:05:04.663Z,60.30
2023-03-04T09:07:34.948Z,60.30
2023-03-04T09:10:05.483Z,60.40
2023-03-04T09:12:35.683Z,60.40
2023-03-04T09:15:11.685Z,60.30
2023-03-04T09:17:42.876Z,60.30
2023-03-04T09:20:15.086Z,60.30
2023-03-04T09:22:45.883Z,60.40
2023-03-04T09:25:17.882Z,60.30
2023-03-04T09:27:48.186Z,60.30
2023-03-04T09:30:18.632Z,60.30
2023-03-04T09:32:49.008Z,60.40
2023-03-04T09:35:19.372Z,60.30
2023-03-04T09:37:51.459Z,60.30
2023-03-04T09:40:40.216Z,60.30
2023-03-04T09:43:21.708Z,60.30
2023-03-04T09:45:57.607Z,60.30
2023-03-04T09:48:31.201Z,60.40
2023-03-04T09:51:22.259Z,60.30
2023-03-04T09:54:17.822Z,60.30
2023-03-04T09:56:48.035Z,60.30
2023-03-04T09:59:27.934Z,60.40
2023-03-04T10:02:04.768Z,60.40
2023-03-04T10:04:35.059Z,60.40
2023-03-04T10:07:17.984Z,60.40
2023-03-04T10:10:04.148Z,60.30
2023-03-04T10:12:41.840Z,60.30
2023-03-04T10:15:35.709Z,60.40
2023-03-04T10:18:49.580Z,60.40
2023-03-04T10:21:22.805Z,60.30
2023-03-04T10:23:55.922Z,60.50
2023-03-04T10:26:34.718Z,60.50
2023-03-04T10:29:08.736Z,60.50
2023-03-04T10:31:43.963Z,60.50
2023-03-04T10:34:16.819Z,60.50
2023-03-04T10:37:01.515Z,60.50
2023-03-04T10:39:31.797Z,60.50
2023-03-04T10:42:10.302Z,60.60
2023-03-04T10:45:04.790Z,60.50
2023-03-04T10:47:37.057Z,60.50
2023-03-04T10:50:09.006Z,60.60
2023-03-04T10:52:52.880Z,60.60
2023-03-04T10:55:31.117Z,60.60
2023-03-04T10:58:08.422Z,60.50
2023-03-04T11:00:40.179Z,60.60
2023-03-04T11:03:37.699Z,61.40
2023-03-04T11:06:19.916Z,60.50
2023-03-04T11:08:58.866Z,60.60
2023-03-04T11:11:36.365Z,60.60
2023-03-04T11:14:33.335Z,60.60
2023-03-04T11:17:06.168Z,60.60
2023-03-04T11:19:42.124Z,60.60
2023-03-04T11:22:17.074Z,60.60
2023-03-04T11:24:50.238Z,60.60
2023-03-04T11:27:51.027Z,60.60
2023-03-04T11:30:39.168Z,60.50
2023-03-04T11:33:15.621Z,60.60
2023-03-04T11:36:00.311Z,60.60
2023-03-04T11:38:44.378Z,60.60
2023-03-04T11:41:21.355Z,60.60
2023-03-04T11:43:51.727Z,60.60
2023-03-04T11:46:33.675Z,60.60
2023-03-04T11:49:31.454Z,60.50
2023-03-04T11:52:41.811Z,60.50
2023-03-04T11:55:13.429Z,60.50
2023-03-04T11:57:43.692Z,60.60
2023-03-04T12:00:56.526Z,60.60
2023-03-04T12:03:44.778Z,60.30
2023-03-04T12:06:51.237Z,60.60
2023-03-04T12:09:56.739Z,60.50
2023-03-04T12:13:01.199Z,60.50
2023-03-04T12:16:07.875Z,60.50
2023-03-04T12:19:04.389Z,60.50
2023-03-04T12:22:02.380Z,60.60
2023-03-04T12:25:13.167Z,60.50
2023-03-04T12:28:10.294Z,60.40
2023-03-04T12:30:58.442Z,60.50
2023-03-04T12:33:37.437Z,60.50
2023-03-04T12:37:09.521Z,60.60
2023-03-04T12:40:16.326Z,60.50
2023-03-04T12:42:58.487Z,60.60
2023-03-04T12:45:39.736Z,60.60
2023-03-04T12:48:28.118Z,60.60
2023-03-04T12:50:58.353Z,60.50
2023-03-04T12:54:06.484Z,60.60
2023-03-04T12:56:59.829Z,60.50
2023-03-04T12:59:36.573Z,60.60
2023-03-04T13:02:07.694Z,60.60
2023-03-04T13:04:40.947Z,60.60
2023-03-04T13:07:24.391Z,60.60
2023-03-04T13:10:07.289Z,60.60
2023-03-04T13:12:53.763Z,60.60
2023-03-04T13:15:29.780Z,60.50
2023-03-04T13:18:19.962Z,60.50
2023-03-04T13:21:07.520Z,60.60
2023-03-04T13:23:38.331Z,60.60
2023-03-04T13:26:38.759Z,60.70
2023-03-04T13:29:20.976Z,60.50
2023-03-04T13:32:12.597Z,60.60
2023-03-04T13:34:51.904Z,60.60
2023-03-04T13:37:39.334Z,60.60
2023-03-04T13:40:25.084Z,60.60
2023-03-04T13:42:55.624Z,60.50
2023-03-04T13:45:41.804Z,60.70
2023-03-04T13:48:29.024Z,60.50
2023-03-04T13:50:59.763Z,60.60
2023-03-04T13:53:56.492Z,60.60
2023-03-04T13:56:30.401Z,60.60
2023-03-04T13:59:24.214Z,60.70
2023-03-04T14:02:02.945Z,60.50
2023-03-04T14:04:41.753Z,60.60
2023-03-04T14:07:23.018Z,60.70
2023-03-04T14:10:06.854Z,60.60
2023-03-04T14:12:40.222Z,60.60
2023-03-04T14:15:30.487Z,60.70
2023-03-04T14:18:03.463Z,60.60
2023-03-04T14:20:50.564Z,60.70
2023-03-04T14:23:33.870Z,60.60
2023-03-04T14:26:16.477Z,60.60
2023-03-04T14:28:53.246Z,60.50
2023-03-04T14:31:26.087Z,60.60
2023-03-04T14:34:03.733Z,60.60
2023-03-04T14:36:36.755Z,60.60
2023-03-04T14:39:10.094Z,60.60
2023-03-04T14:41:44.831Z,60.60
2023-03-04T14:44:52.720Z,60.60
2023-03-04T14:47:33.172Z,60.50
2023-03-04T14:50:03.593Z,60.60
2023-03-04T14:53:05.742Z,60.70
2023-03-04T14:55:36.241Z,60.50
2023-03-04T14:58:23.968Z,60.60
2023-03-04T15:01:10.906Z,60.50
2023-03-04T15:03:42.404Z,60.50
2023-03-04T15:06:24.688Z,60.60
2023-03-04T15:09:28.609Z,60.60
2023-03-04T15:12:08.858Z,60.40
2023-03-04T15:14:56.749Z,60.50
2023-03-04T15:17:44.084Z,60.50
2023-03-04T15:20:20.310Z,60.60
2023-03-04T15:22:53.735Z,60.70
2023-03-04T15:25:24.197Z,60.60
2023-03-04T15:27:55.817Z,60.60
2023-03-04T15:30:29.442Z,60.60
2023-03-04T15:33:00.729Z,60.60
2023-03-04T15:35:34.130Z,60.60
2023-03-04T15:38:04.886Z,60.60
2023-03-04T15:40:40.975Z,60.60
2023-03-04T15:43:13.276Z,60.60
2023-03-04T15:45:43.971Z,60.60
2023-03-04T15:48:16.703Z,60.50
2023-03-04T15:51:17.293Z,60.50
2023-03-04T15:53:58.553Z,60.50
2023-03-04T15:56:34.184Z,60.60
2023-03-04T15:59:14.305Z,60.60
2023-03-04T16:01:45.165Z,60.60
2023-03-04T16:04:19.497Z,60.60
2023-03-04T16:06:52.218Z,60.60
2023-03-04T16:09:23.693Z,60.60
2023-03-04T16:11:57.992Z,61.40
2023-03-04T16:14:28.563Z,60.60
2023-03-04T16:16:58.732Z,60.60
2023-03-04T16:19:29.065Z,60.60
2023-03-04T16:21:59.512Z,60.60
2023-03-04T16:24:32.003Z,61.40
2023-03-04T16:27:02.763Z,60.60
2023-03-04T16:29:33.957Z,60.60
2023-03-04T16:32:04.260Z,60.50
2023-03-04T16:34:34.599Z,60.60
2023-03-04T16:37:14.464Z,60.60
2023-03-04T16:39:47.808Z,60.60
2023-03-04T16:42:24.251Z,60.60
2023-03-04T16:44:55.631Z,60.60
2023-03-04T16:47:25.971Z,60.60
2023-03-04T16:49:56.553Z,60.60
2023-03-04T16:52:33.579Z,60.60
2023-03-04T16:55:03.765Z,60.60
2023-03-04T16:57:33.950Z,60.60
2023-03-04T17:00:04.213Z,60.60
2023-03-04T17:02:34.469Z,60.60
2023-03-04T17:05:05.696Z,60.60
2023-03-04T17:07:36.281Z,60.60
2023-03-04T17:10:06.837Z,60.60
2023-03-04T17:12:37.073Z,60.60
2023-03-04T17:15:07.761Z,60.60
2023-03-04T17:17:38.025Z,60.60
2023-03-04T17:20:09.334Z,60.70
2023-03-04T17:22:39.798Z,60.60
2023-03-04T17:25:10.849Z,60.60
2023-03-04T17:27:41.085Z,60.60
2023-03-04T17:30:12.911Z,60.60
2023-03-04T17:32:43.957Z,60.60
2023-03-04T17:35:14.716Z,60.60
2023-03-04T17:37:44.963Z,60.60
2023-03-04T17:40:16.062Z,60.60
2023-03-04T17:42:46.806Z,60.60
2023-03-04T17:45:17.060Z,60.70
2023-03-04T17:47:47.270Z,60.70
2023-03-04T17:50:17.557Z,60.70
2023-03-04T17:52:48.097Z,60.70
2023-03-04T17:55:18.347Z,60.70
2023-03-04T17:57:48.607Z,60.70
2023-03-04T18:00:19.370Z,60.70
2023-03-04T18:02:49.663Z,60.70
2023-03-04T18:05:19.952Z,60.70
2023-03-04T18:07:50.582Z,60.70
2023-03-04T18:10:21.230Z,60.70
2023-03-04T18:12:51.576Z,60.70
2023-03-04T18:15:22.108Z,60.70
2023-03-04T18:17:52.481Z,60.70
2023-03-04T18:20:23.219Z,60.70
2023-03-04T18:22:53.751Z,60.80
2023-03-04T18:25:24.175Z,60.80
2023-03-04T18:27:54.734Z,60.70
2023-03-04T18:30:28.936Z,60.80
2023-03-04T18:33:03.807Z,60.80
2023-03-04T18:35:34.233Z,60.80
2023-03-04T18:38:04.568Z,60.70
2023-03-04T18:40:34.833Z,60.70
2023-03-04T18:43:06.247Z,60.70
2023-03-04T18:45:36.717Z,60.70
2023-03-04T18:48:07.900Z,60.70
2023-03-04T18:50:38.648Z,60.70
2023-03-04T18:53:08.839Z,60.70
2023-03-04T18:55:39.186Z,60.70
2023-03-04T18:58:09.429Z,60.70
2023-03-04T19:00:39.681Z,60.80
2023-03-04T19:03:14.101Z,60.80
2023-03-04T19:05:44.656Z,60.80
2023-03-04T19:08:15.218Z,60.80
2023-03-04T19:10:45.446Z,60.90
2023-03-04T19:13:17.438Z,60.90
2023-03-04T19:15:48.078Z,60.80
2023-03-04T19:18:18.328Z,60.80
2023-03-04T19:20:49.155Z,60.80
2023-03-04T19:23:20.195Z,60.80
2023-03-04T19:25:50.495Z,60.90
2023-03-04T19:28:20.722Z,60.90
2023-03-04T19:30:50.940Z,60.90
2023-03-04T19:33:21.428Z,60.90
2023-03-04T19:35:51.935Z,60.90
2023-03-04T19:38:28.280Z,60.90
2023-03-04T19:40:58.704Z,60.90
2023-03-04T19:43:29.258Z,60.90
2023-03-04T19:46:00.470Z,60.90
2023-03-04T19:48:30.853Z,60.90
2023-03-04T19:51:01.521Z,60.90
2023-03-04T19:53:33.614Z,60.90
2023-03-04T19:56:05.082Z,60.90
2023-03-04T19:58:35.379Z,61.00
2023-03-04T20:01:06.132Z,60.90
2023-03-04T20:03:36.433Z,61.00
2023-03-04T20:06:11.052Z,61.00
2023-03-04T20:08:41.277Z,60.90
2023-03-04T20:11:15.957Z,60.90
2023-03-04T20:13:46.643Z,60.80
2023-03-04T20:16:17.578Z,60.90
2023-03-04T20:18:47.829Z,60.90
2023-03-04T20:21:18.066Z,60.90
2023-03-04T20:23:48.353Z,60.90
2023-03-04T20:26:20.131Z,60.90
2023-03-04T20:28:50.378Z,60.90
2023-03-04T20:31:33.243Z,60.90
2023-03-04T20:34:03.629Z,60.90
2023-03-04T20:36:34.476Z,61.00
2023-03-04T20:39:10.308Z,61.00
2023-03-04T20:41:48.750Z,61.00
2023-03-04T20:44:19.037Z,61.00
2023-03-04T20:46:49.309Z,61.00
2023-03-04T20:49:25.644Z,61.00
2023-03-04T20:52:04.761Z,60.90
2023-03-04T20:54:36.586Z,61.80
2023-03-04T20:57:12.343Z,61.00
2023-03-04T20:59:43.599Z,61.00
2023-03-04T21:02:17.765Z,61.00
2023-03-04T21:04:48.066Z,61.00
2023-03-04T21:07:18.300Z,61.00
2023-03-04T21:09:48.619Z,61.00
2023-03-04T21:12:18.834Z,61.00
2023-03-04T21:14:49.153Z,61.10
2023-03-04T21:17:19.402Z,61.10
2023-03-04T21:19:49.693Z,61.00
2023-03-04T21:22:21.837Z,61.10
2023-03-04T21:24:52.131Z,61.10
2023-03-04T21:27:22.444Z,61.10
2023-03-04T21:29:52.718Z,61.10
2023-03-04T21:32:27.346Z,61.10
2023-03-04T21:34:58.430Z,61.10
2023-03-04T21:37:29.132Z,61.10
2023-03-04T21:39:59.920Z,61.10
2023-03-04T21:42:30.220Z,61.20
2023-03-04T21:45:00.450Z,61.20
2023-03-04T21:47:30.695Z,61.10
2023-03-04T21:50:00.986Z,61.20
2023-03-04T21:52:31.390Z,61.10
2023-03-04T21:55:02.280Z,61.20
2023-03-04T21:57:32.636Z,61.20
2023-03-04T22:00:03.743Z,61.30
2023-03-04T22:02:35.258Z,61.30
2023-03-04T22:05:05.808Z,61.30
2023-03-04T22:07:36.439Z,61.30
2023-03-04T22:10:08.364Z,61.20
2023-03-04T22:12:38.743Z,61.20
2023-03-04T22:15:09.649Z,61.30
2023-03-04T22:17:40.007Z,61.30
2023-03-04T22:20:11.029Z,61.40
2023-03-04T22:22:41.251Z,61.30
2023-03-04T22:25:12.007Z,61.30
2023-03-04T22:27:42.190Z,61.30
2023-03-04T22:30:13.656Z,61.30
2023-03-04T22:32:46.266Z,61.30
2023-03-04T22:35:19.869Z,61.30
2023-03-04T22:37:50.055Z,61.30
2023-03-04T22:40:20.378Z,61.30
2023-03-04T22:42:51.328Z,61.30
2023-03-04T22:45:23.194Z,61.30
2023-03-04T22:47:55.067Z,61.40
2023-03-04T22:50:25.447Z,61.40
2023-03-04T22:52:57.332Z,61.40
2023-03-04T22:55:27.630Z,61.40
2023-03-04T22:57:57.911Z,61.40
2023-03-04T23:00:30.705Z,61.30
2023-03-04T23:03:01.399Z,61.40
2023-03-04T23:05:31.741Z,61.40
2023-03-04T23:08:02.007Z,61.40
2023-03-04T23:10:32.204Z,61.40
2023-03-04T23:13:02.631Z,61.40
2023-03-04T23:15:32.858Z,61.40
2023-03-04T23:18:03.161Z,61.40
2023-03-04T23:20:33.446Z,61.30
2023-03-04T23:23:03.680Z,61.40
2023-03-04T23:25:36.532Z,61.40
2023-03-04T23:28:07.079Z,61.40
2023-03-04T23:30:37.450Z,61.30
2023-03-04T23:33:07.685Z,61.40
2023-03-04T23:35:38.015Z,61.40
2023-03-04T23:38:09.412Z,61.40
2023-03-04T23:40:39.687Z,61.40
2023-03-04T23:43:09.924Z,61.40
2023-03-04T23:45:40.633Z,61.30
2023-03-04T23:48:11.658Z,61.40
2023-03-04T23:50:42.166Z,61.40
2023-03-04T23:53:12.639Z,61.50
2023-03-04T23:55:44.768Z,61.40
2023-03-04T23:58:15.419Z,61.40
